Los Angeles, CA

11:58 AM PDT on August 28, 2015 (GMT -0700)
Natural History Museum | | Change Station
CLOSE
Current Station
Personal Weather Station
Location: Los Angeles, CA
Elevation: 207 ft
Nearby Weather Stations

Elev 207 ft 34.02 °N, 118.29 °W | Updated 9 seconds ago

Clear
Clear
98.6 °F
Feels Like 101 °F
N
1.9
Wind Variable Wind from NNE
Gusts 3.0 mph

Today
High -- | Low -- °F
--% Chance of Precip.
Yesterday
High -- | Low -- °F
Precip. -- in
6:23 AM 7:24 PM
Waxing Gibbous, 99% visible
Pressure 29.86 in
Visibility 10.0 miles
Clouds Clear
Heat Index 101 °F
Dew Point 63 °F
Humidity 32%
Rainfall 0.00 in
Snow Depth Not available.
UV 10 out of 12
Pollen 6.50 out of 12
Air Quality Not available.
Flu Activity Not available.
METAR KCQT 281847Z AUTO 00000KT 10SM CLR 36/14 A2987 RMK AO2 SLP110 T03560144
Pressure 29.86 in
Visibility 10.0 miles
Clouds Clear
Heat Index 101 °F
Dew Point 63 °F
Humidity 32%
Rainfall 0.00 in
Snow Depth Not available.
UV 10 out of 12
Pollen 6.50 out of 12
Air Quality Not available.
Flu Activity Not available.
METAR KCQT 281847Z AUTO 00000KT 10SM CLR 36/14 A2987 RMK AO2 SLP110 T03560144

10-Day Weather Forecast

×

Almanac

Astronomy

Aug. 28, 2015 Rise Set
Actual Time
Civil Twilight
Nautical Twilight
Astronomical Twilight
Moon
Length of Visible Light
Length of Day
Tomorrow will be .
, % of the Moon is Illuminated

Today's Extremes

State Highs State Lows

Community

WunderPhotos

Upload Photos

1,850,453 photos uploaded!

WunderBlogs® & News

Nearby

Air Quality

  Air Quality AQ Index Pollutant
Not available.

Snow Depth

Station Depth Elevation

Earthquake Activity

City Distance Mag. Time & Date
Minimum magnitude displayed is 2.5.

Coastal Water Temperatures

Place Temperature

Stations

Nearby Weather Stations

Station Location Temp. Windchill Dew Point Humidity Wind Precip. Elev Updated Type